Landaff, New Hampshire
Current Conditions -  °F | °C
As of 5:15 PM on Friday 24 Oct 2014 (Local Time) from K1P1 Reporting Station
Overcast Overcast  
Wind Chill: 42°   Ceiling: 2800
Heat Index: 47°   Visibility: 10mi
Dew Point: 44°   Wind: 10mph
Humidity: 90%   Direction: 290°WNW
Pressure: 29.71"   Gusts: 21mph
Location:  44.1173°N, 71.8999°W
Report Text: K1P1 242115Z AUTO 29009G18KT 10SM SCT021 OVC028 08/07 A2971 RMK AO2 T00820066
Loading
Personal Weather Stations






























Interactive Weather Map
Tropical Storm Tracking
New forecast layout! Learn more

10-Day Weather Forecast

Advertisements
Track Severe Weather on mobile